createdAt,value
2019-01-08T00:01:35.164Z,29.70
2019-01-08T00:04:01.209Z,35.43
2019-01-08T00:06:27.536Z,33.67
2019-01-08T00:08:53.589Z,26.68
2019-01-08T00:11:19.744Z,38.78
2019-01-08T00:13:45.814Z,27.00
2019-01-08T00:16:11.863Z,25.95
2019-01-08T00:18:38.007Z,36.38
2019-01-08T00:21:04.167Z,33.50
2019-01-08T00:23:30.527Z,32.23
2019-01-08T00:25:56.707Z,28.83
2019-01-08T00:28:22.760Z,30.50
2019-01-08T00:30:48.780Z,34.98
2019-01-08T00:33:14.827Z,35.40
2019-01-08T00:35:40.963Z,23.10
2019-01-08T00:38:07.015Z,35.13
2019-01-08T00:40:33.088Z,28.23
2019-01-08T00:42:59.201Z,34.75
2019-01-08T00:45:25.240Z,34.00
2019-01-08T00:47:51.284Z,34.80
2019-01-08T00:50:17.316Z,36.88
2019-01-08T00:52:43.392Z,38.73
2019-01-08T00:55:09.435Z,33.37
2019-01-08T00:57:35.451Z,31.25
2019-01-08T01:00:01.897Z,31.68
2019-01-08T01:02:27.936Z,30.45
2019-01-08T01:04:54.098Z,36.97
2019-01-08T01:07:20.196Z,29.80
2019-01-08T01:09:46.287Z,39.27
2019-01-08T01:12:12.328Z,40.05
2019-01-08T01:14:38.351Z,42.00
2019-01-08T01:17:04.409Z,32.17
2019-01-08T01:19:30.477Z,42.37
2019-01-08T01:21:56.517Z,33.92
2019-01-08T01:24:22.535Z,29.00
2019-01-08T01:26:48.591Z,38.00
2019-01-08T01:29:14.614Z,44.88
2019-01-08T01:31:41.115Z,37.42
2019-01-08T01:34:07.148Z,33.28
2019-01-08T01:36:33.179Z,37.13
2019-01-08T01:38:59.306Z,37.03
2019-01-08T01:41:25.330Z,36.08
2019-01-08T01:43:51.352Z,41.50
2019-01-08T01:46:17.469Z,33.45
2019-01-08T01:48:43.502Z,37.85
2019-01-08T01:51:09.535Z,28.02
2019-01-08T01:53:35.571Z,33.88
2019-01-08T01:56:01.739Z,29.27
2019-01-08T01:58:27.762Z,41.37
2019-01-08T02:00:53.771Z,35.68
2019-01-08T02:03:20.159Z,32.53
2019-01-08T02:05:46.183Z,33.02
2019-01-08T02:08:12.204Z,30.72
2019-01-08T02:10:38.349Z,42.08
2019-01-08T02:13:04.360Z,37.15
2019-01-08T02:15:30.381Z,39.92
2019-01-08T02:17:56.427Z,32.50
2019-01-08T02:20:22.451Z,44.10
2019-01-08T02:22:48.491Z,35.75
2019-01-08T02:25:14.532Z,32.95
2019-01-08T02:27:40.547Z,33.47
2019-01-08T02:30:07.133Z,37.30
2019-01-08T02:32:33.248Z,28.20
2019-01-08T02:34:59.268Z,33.00
2019-01-08T02:37:29.986Z,34.92
2019-01-08T02:39:56.004Z,33.20
2019-01-08T02:42:22.052Z,36.53
2019-01-08T02:44:48.186Z,34.38
2019-01-08T02:47:14.435Z,38.35
2019-01-08T02:49:40.472Z,30.77
2019-01-08T02:52:06.492Z,34.63
2019-01-08T02:54:32.583Z,30.12
2019-01-08T02:56:58.687Z,29.18
2019-01-08T02:59:25.268Z,31.77
2019-01-08T03:01:51.710Z,31.30
2019-01-08T03:04:17.782Z,38.38
2019-01-08T03:06:43.790Z,29.40
2019-01-08T03:09:09.814Z,33.23
2019-01-08T03:11:36.002Z,32.73
2019-01-08T03:14:02.023Z,38.90
2019-01-08T03:16:28.047Z,28.67
2019-01-08T03:18:54.110Z,30.35
2019-01-08T03:21:20.129Z,25.27
2019-01-08T03:23:46.148Z,33.60
2019-01-08T03:26:12.210Z,36.68
2019-01-08T03:28:38.247Z,27.48
2019-01-08T03:31:04.268Z,28.32
2019-01-08T03:33:30.386Z,35.77
2019-01-08T03:35:56.414Z,26.33
2019-01-08T03:38:22.437Z,30.02
2019-01-08T03:40:48.483Z,35.60
2019-01-08T03:43:14.503Z,32.95
2019-01-08T03:45:40.538Z,33.60
2019-01-08T03:48:06.567Z,30.83
2019-01-08T03:50:32.602Z,29.10
2019-01-08T03:52:58.620Z,21.93
2019-01-08T03:55:24.635Z,33.55
2019-01-08T03:57:51.103Z,38.65
2019-01-08T04:00:17.117Z,29.90
2019-01-08T04:02:43.163Z,24.47
2019-01-08T04:05:09.175Z,31.77
2019-01-08T04:07:35.195Z,27.98
2019-01-08T04:10:01.435Z,25.40
2019-01-08T04:12:27.450Z,31.70
2019-01-08T04:14:53.511Z,26.73
2019-01-08T04:17:19.543Z,36.48
2019-01-08T04:19:45.571Z,27.60
2019-01-08T04:22:11.603Z,30.12
2019-01-08T04:24:37.792Z,32.40
2019-01-08T04:27:03.895Z,24.77
2019-01-08T04:29:29.943Z,26.80
2019-01-08T04:31:55.983Z,29.40
2019-01-08T04:34:22.002Z,30.90
2019-01-08T04:36:48.271Z,33.25
2019-01-08T04:39:14.284Z,27.65
2019-01-08T04:41:40.330Z,30.55
2019-01-08T04:44:06.367Z,34.25
2019-01-08T04:46:32.427Z,26.60
2019-01-08T04:48:58.453Z,30.37
2019-01-08T04:51:24.486Z,26.30
2019-01-08T04:53:50.508Z,39.27
2019-01-08T04:56:16.814Z,39.05
2019-01-08T04:58:42.864Z,33.53
2019-01-08T05:01:08.911Z,34.70
2019-01-08T05:03:35.019Z,38.02
2019-01-08T05:06:01.119Z,32.48
2019-01-08T05:08:27.135Z,34.92
2019-01-08T05:10:53.196Z,37.83
2019-01-08T05:13:19.227Z,31.40
2019-01-08T05:15:45.248Z,27.40
2019-01-08T05:18:11.298Z,31.25
2019-01-08T05:20:37.342Z,25.87
2019-01-08T05:23:03.367Z,32.65
2019-01-08T05:25:29.402Z,19.87
2019-01-08T05:27:55.527Z,22.58
2019-01-08T05:30:21.671Z,28.40
2019-01-08T05:32:47.709Z,31.42
2019-01-08T05:35:14.090Z,25.57
2019-01-08T05:37:40.112Z,37.87
2019-01-08T05:40:06.496Z,30.10
2019-01-08T05:42:34.513Z,29.85
2019-01-08T05:45:00.661Z,39.30
2019-01-08T05:47:36.545Z,35.83
2019-01-08T05:50:03.615Z,35.45
2019-01-08T05:52:29.644Z,25.08
2019-01-08T05:54:55.683Z,35.05
2019-01-08T05:57:21.711Z,35.63
2019-01-08T05:59:47.736Z,39.47
2019-01-08T06:02:13.780Z,40.60
2019-01-08T06:04:39.937Z,39.40
2019-01-08T06:07:06.027Z,42.83
2019-01-08T06:09:32.047Z,37.73
2019-01-08T06:11:58.075Z,44.85
2019-01-08T06:14:24.095Z,43.83
2019-01-08T06:16:50.140Z,46.15
2019-01-08T06:19:16.176Z,45.63
2019-01-08T06:21:42.187Z,36.13
2019-01-08T06:24:08.466Z,41.40
2019-01-08T06:26:34.484Z,41.70
2019-01-08T06:29:00.516Z,37.03
2019-01-08T06:31:26.553Z,34.23
2019-01-08T06:33:52.882Z,40.12
2019-01-08T06:36:18.899Z,43.87
2019-01-08T06:38:45.108Z,43.60
2019-01-08T06:41:11.127Z,44.00
2019-01-08T06:43:37.156Z,39.80
2019-01-08T06:46:03.218Z,43.73
2019-01-08T06:48:29.259Z,46.02
2019-01-08T06:50:56.309Z,42.25
2019-01-08T06:53:22.551Z,39.27
2019-01-08T06:55:48.589Z,52.08
2019-01-08T06:58:14.621Z,40.88
2019-01-08T07:00:40.706Z,38.10
2019-01-08T07:03:06.754Z,43.50
2019-01-08T07:05:32.775Z,38.90
2019-01-08T07:07:58.895Z,28.98
2019-01-08T07:10:24.923Z,31.17
2019-01-08T07:12:50.966Z,33.23
2019-01-08T07:15:17.006Z,29.32
2019-01-08T07:17:43.024Z,33.55
2019-01-08T07:20:09.057Z,34.40
2019-01-08T07:22:35.361Z,29.85
2019-01-08T07:25:01.375Z,37.87
2019-01-08T07:27:27.734Z,29.42
2019-01-08T07:29:53.824Z,31.00
2019-01-08T07:32:19.856Z,33.50
2019-01-08T07:34:45.900Z,25.70
2019-01-08T07:37:12.246Z,25.40
2019-01-08T07:39:38.259Z,23.75
2019-01-08T07:42:04.293Z,26.75
2019-01-08T07:44:30.356Z,24.45
2019-01-08T07:46:57.954Z,21.85
2019-01-08T07:49:24.167Z,23.45
2019-01-08T07:51:50.263Z,21.85
2019-01-08T07:54:16.377Z,22.52
2019-01-08T07:56:42.507Z,25.40
2019-01-08T07:59:08.951Z,19.25
2019-01-08T08:01:35.042Z,25.72
2019-01-08T08:04:01.218Z,25.43
2019-01-08T08:06:27.554Z,24.90
2019-01-08T08:08:54.137Z,25.52
2019-01-08T08:11:20.207Z,27.15
2019-01-08T08:13:46.322Z,26.90
2019-01-08T08:16:12.438Z,29.63
2019-01-08T08:18:38.595Z,26.85
2019-01-08T08:21:04.724Z,27.62
2019-01-08T08:23:30.737Z,31.23
2019-01-08T08:25:56.803Z,25.60
2019-01-08T08:28:22.844Z,29.90
2019-01-08T08:30:48.931Z,32.47
2019-01-08T08:33:14.987Z,35.35
2019-01-08T08:35:41.065Z,31.27
2019-01-08T08:38:07.087Z,32.27
2019-01-08T08:40:33.115Z,33.13
2019-01-08T08:42:59.172Z,29.50
2019-01-08T08:45:25.191Z,36.83
2019-01-08T08:47:51.250Z,31.95
2019-01-08T08:50:17.278Z,35.85
2019-01-08T08:52:43.342Z,34.45
2019-01-08T08:55:09.407Z,34.15
2019-01-08T08:57:35.434Z,36.58
2019-01-08T09:00:01.515Z,33.23
2019-01-08T09:02:27.713Z,33.45
2019-01-08T09:04:53.795Z,33.13
2019-01-08T09:07:20.214Z,32.30
2019-01-08T09:09:46.521Z,33.48
2019-01-08T09:12:12.588Z,30.82
2019-01-08T09:14:38.662Z,39.00
2019-01-08T09:17:04.792Z,32.75
2019-01-08T09:19:30.818Z,30.93
2019-01-08T09:21:56.892Z,27.07
2019-01-08T09:24:22.975Z,35.60
2019-01-08T09:26:49.012Z,37.83
2019-01-08T09:29:15.043Z,31.75
2019-01-08T09:31:41.117Z,36.38
2019-01-08T09:34:07.129Z,36.30
2019-01-08T09:36:33.135Z,37.00
2019-01-08T09:38:59.190Z,34.08
2019-01-08T09:41:25.206Z,39.92
2019-01-08T09:43:51.236Z,32.90
2019-01-08T09:46:17.417Z,34.55
2019-01-08T09:48:43.479Z,38.60
2019-01-08T09:51:09.583Z,32.53
2019-01-08T09:53:35.759Z,37.42
2019-01-08T09:56:01.794Z,32.10
2019-01-08T09:58:27.795Z,35.90
2019-01-08T10:00:53.836Z,33.92
2019-01-08T10:03:19.850Z,41.67
2019-01-08T10:05:46.116Z,35.10
2019-01-08T10:08:12.187Z,41.88
2019-01-08T10:10:38.221Z,45.88
2019-01-08T10:13:04.252Z,45.15
2019-01-08T10:15:30.378Z,44.55
2019-01-08T10:17:56.415Z,31.57
2019-01-08T10:20:22.446Z,38.53
2019-01-08T10:22:48.743Z,35.60
2019-01-08T10:25:14.767Z,34.50
2019-01-08T10:27:40.858Z,31.43
2019-01-08T10:30:08.897Z,29.23
2019-01-08T10:32:34.910Z,32.00
2019-01-08T10:35:01.279Z,21.37
2019-01-08T10:37:27.343Z,29.23
2019-01-08T10:39:53.400Z,31.40
2019-01-08T10:42:19.537Z,29.60
2019-01-08T10:44:45.883Z,28.10
2019-01-08T10:47:11.907Z,36.47
2019-01-08T10:49:38.088Z,39.85
2019-01-08T10:52:04.118Z,35.33
2019-01-08T10:54:30.171Z,38.07
2019-01-08T10:56:56.324Z,28.60
2019-01-08T10:59:22.401Z,34.85
2019-01-08T11:01:48.424Z,24.27
2019-01-08T11:04:14.464Z,28.70
2019-01-08T11:06:41.123Z,40.17
2019-01-08T11:09:07.186Z,30.97
2019-01-08T11:11:34.344Z,33.42
2019-01-08T11:14:00.569Z,40.80
2019-01-08T11:16:26.612Z,33.80
2019-01-08T11:18:52.929Z,36.20
2019-01-08T11:21:20.964Z,39.03
2019-01-08T11:23:47.054Z,36.67
2019-01-08T11:26:13.089Z,37.88
2019-01-08T11:28:39.107Z,39.30
2019-01-08T11:31:05.251Z,42.03
2019-01-08T11:33:31.280Z,33.83
2019-01-08T11:35:57.346Z,34.35
2019-01-08T11:38:23.652Z,41.45
2019-01-08T11:40:49.738Z,44.48
2019-01-08T11:43:35.651Z,42.10
2019-01-08T11:46:02.034Z,47.10
2019-01-08T11:48:28.055Z,53.60
2019-01-08T11:50:54.096Z,51.40
2019-01-08T11:53:20.397Z,43.58
2019-01-08T11:55:46.416Z,47.80
2019-01-08T11:58:12.429Z,44.70
2019-01-08T12:00:38.515Z,45.50
2019-01-08T12:03:04.538Z,43.23
2019-01-08T12:05:30.591Z,43.95
2019-01-08T12:07:56.758Z,42.48
2019-01-08T12:10:24.383Z,39.47
2019-01-08T12:12:50.542Z,41.95
2019-01-08T12:15:16.571Z,44.07
2019-01-08T12:17:42.625Z,41.08
2019-01-08T12:20:10.445Z,44.33
2019-01-08T12:22:40.956Z,50.17
2019-01-08T12:25:06.960Z,49.58
2019-01-08T12:27:33.099Z,56.08
2019-01-08T12:29:59.128Z,48.92
2019-01-08T12:32:25.172Z,53.38
2019-01-08T12:34:51.498Z,52.15
2019-01-08T12:37:17.549Z,54.03
2019-01-08T12:39:43.970Z,49.80
2019-01-08T12:42:10.028Z,55.60
2019-01-08T12:44:36.171Z,50.30
2019-01-08T12:47:02.211Z,38.98
2019-01-08T12:49:28.263Z,45.97
2019-01-08T12:51:54.284Z,48.58
2019-01-08T12:54:20.331Z,48.55
2019-01-08T12:56:46.646Z,58.67
2019-01-08T12:59:12.784Z,56.48
2019-01-08T13:01:39.586Z,47.60
2019-01-08T13:04:05.631Z,54.23
2019-01-08T13:06:31.781Z,51.48
2019-01-08T13:08:57.837Z,46.92
2019-01-08T13:11:23.871Z,58.23
2019-01-08T13:13:50.158Z,50.95
2019-01-08T13:16:16.188Z,62.95
2019-01-08T13:18:42.223Z,42.38
2019-01-08T13:21:08.320Z,52.43
2019-01-08T13:23:34.347Z,52.23
2019-01-08T13:26:00.377Z,43.70
2019-01-08T13:28:26.434Z,45.52
2019-01-08T13:30:52.478Z,45.85
2019-01-08T13:33:18.528Z,49.63
2019-01-08T13:35:44.660Z,43.02
2019-01-08T13:38:10.689Z,46.77
2019-01-08T13:40:36.708Z,45.20
2019-01-08T13:43:02.736Z,48.02
2019-01-08T13:45:28.801Z,42.98
2019-01-08T13:47:54.812Z,35.58
2019-01-08T13:50:20.860Z,39.92
2019-01-08T13:52:46.957Z,46.53
2019-01-08T13:55:12.958Z,45.47
2019-01-08T13:57:39.004Z,43.60
2019-01-08T14:00:07.152Z,37.98
2019-01-08T14:02:33.354Z,45.67
2019-01-08T14:04:59.413Z,34.98
2019-01-08T14:07:25.489Z,43.17
2019-01-08T14:09:51.960Z,35.15
2019-01-08T14:12:18.002Z,37.48
2019-01-08T14:14:44.022Z,34.00
2019-01-08T14:17:10.131Z,37.05
2019-01-08T14:19:41.185Z,27.02
2019-01-08T14:22:07.222Z,24.60
2019-01-08T14:24:33.250Z,21.02
2019-01-08T14:26:59.291Z,15.40
2019-01-08T14:29:25.570Z,13.08
2019-01-08T14:31:51.600Z,7.33
2019-01-08T14:34:17.667Z,9.23
2019-01-08T14:36:43.700Z,6.80
2019-01-08T14:39:09.749Z,6.25
2019-01-08T14:41:36.158Z,5.45
2019-01-08T14:44:02.304Z,3.50
2019-01-08T14:46:28.331Z,6.70
2019-01-08T14:48:54.363Z,7.55
2019-01-08T14:51:20.415Z,6.12
2019-01-08T14:53:46.553Z,4.80
2019-01-08T14:56:12.575Z,6.20
2019-01-08T14:58:38.604Z,7.47
2019-01-08T15:01:04.738Z,5.80
2019-01-08T15:03:30.776Z,7.50
2019-01-08T15:05:56.821Z,7.67
2019-01-08T15:08:22.972Z,3.27
2019-01-08T15:10:49.027Z,7.75
2019-01-08T15:13:15.051Z,6.35
2019-01-08T15:15:41.360Z,4.33
2019-01-08T15:18:07.498Z,5.37
2019-01-08T15:20:33.518Z,5.17
2019-01-08T15:22:59.588Z,3.80
2019-01-08T15:25:25.615Z,3.55
2019-01-08T15:27:51.652Z,3.65
2019-01-08T15:30:17.734Z,4.33
2019-01-08T15:32:43.863Z,6.10
2019-01-08T15:35:09.899Z,5.70
2019-01-08T15:37:35.936Z,6.85
2019-01-08T15:40:02.003Z,5.60
2019-01-08T15:42:28.019Z,5.50
2019-01-08T15:44:54.084Z,4.47
2019-01-08T15:47:20.410Z,4.20
2019-01-08T15:49:46.458Z,3.20
2019-01-08T15:52:12.490Z,6.12
2019-01-08T15:54:38.832Z,4.58
2019-01-08T15:57:04.855Z,7.70
2019-01-08T15:59:31.453Z,5.23
2019-01-08T16:01:57.692Z,8.85
2019-01-08T16:04:24.723Z,8.83
2019-01-08T16:06:50.730Z,15.45
2019-01-08T16:09:16.784Z,12.60
2019-01-08T16:11:42.845Z,11.38
2019-01-08T16:14:08.882Z,15.70
2019-01-08T16:16:35.084Z,10.53
2019-01-08T16:19:01.101Z,12.77
2019-01-08T16:21:27.131Z,10.70
2019-01-08T16:23:53.270Z,11.03
2019-01-08T16:26:19.288Z,10.17
2019-01-08T16:28:45.319Z,8.35
2019-01-08T16:31:11.383Z,9.23
2019-01-08T16:33:37.406Z,10.00
2019-01-08T16:36:03.706Z,10.20
2019-01-08T16:38:29.737Z,11.40
2019-01-08T16:40:55.765Z,9.58
2019-01-08T16:43:21.807Z,10.20
2019-01-08T16:45:48.153Z,7.80
2019-01-08T16:48:14.172Z,10.32
2019-01-08T16:50:40.198Z,9.98
2019-01-08T16:53:06.351Z,7.67
2019-01-08T16:55:32.375Z,9.23
2019-01-08T16:57:58.402Z,12.70
2019-01-08T17:00:24.754Z,6.40
2019-01-08T17:02:50.799Z,5.92
2019-01-08T17:05:16.920Z,8.83
2019-01-08T17:07:42.950Z,6.00
2019-01-08T17:10:08.975Z,6.62
2019-01-08T17:12:35.033Z,5.75
2019-01-08T17:15:01.963Z,8.43
2019-01-08T17:17:28.102Z,9.73
2019-01-08T17:19:54.307Z,6.00
2019-01-08T17:22:20.351Z,5.62
2019-01-08T17:24:46.402Z,6.37
2019-01-08T17:27:12.544Z,6.03
2019-01-08T17:29:38.597Z,5.45
2019-01-08T17:32:04.728Z,8.67
2019-01-08T17:34:30.838Z,6.65
2019-01-08T17:36:56.866Z,6.28
2019-01-08T17:39:24.952Z,4.93
2019-01-08T17:41:51.191Z,8.50
2019-01-08T17:44:17.238Z,4.50
2019-01-08T17:46:43.305Z,5.87
2019-01-08T17:49:09.616Z,5.00
2019-01-08T17:51:35.651Z,4.60
2019-01-08T17:54:01.735Z,4.78
2019-01-08T17:56:27.774Z,5.47
2019-01-08T17:58:57.213Z,5.33
2019-01-08T18:01:23.611Z,5.50
2019-01-08T18:03:49.639Z,6.30
2019-01-08T18:06:15.658Z,6.85
2019-01-08T18:08:41.716Z,7.17
2019-01-08T18:11:07.753Z,11.27
2019-01-08T18:13:33.831Z,4.55
2019-01-08T18:16:00.154Z,5.08
2019-01-08T18:18:26.208Z,3.98
2019-01-08T18:20:52.259Z,5.80
2019-01-08T18:23:18.338Z,5.53
2019-01-08T18:25:44.379Z,6.55
2019-01-08T18:28:10.505Z,2.22
2019-01-08T18:30:36.899Z,3.57
2019-01-08T18:33:02.946Z,5.10
2019-01-08T18:35:29.003Z,5.58
2019-01-08T18:37:55.043Z,6.05
2019-01-08T18:40:21.203Z,5.87
2019-01-08T18:42:47.237Z,2.87
2019-01-08T18:45:13.267Z,4.30
2019-01-08T18:47:39.314Z,5.00
2019-01-08T18:50:05.441Z,6.42
2019-01-08T18:52:31.651Z,7.53
2019-01-08T18:54:57.703Z,4.20
2019-01-08T18:57:23.825Z,7.55
2019-01-08T18:59:49.892Z,4.40
2019-01-08T19:02:16.751Z,5.40
2019-01-08T19:04:42.795Z,3.52
2019-01-08T19:07:08.863Z,5.72
2019-01-08T19:09:34.915Z,10.63
2019-01-08T19:12:00.939Z,7.05
2019-01-08T19:14:29.902Z,6.78
2019-01-08T19:16:56.112Z,3.60
2019-01-08T19:19:22.551Z,5.17
2019-01-08T19:21:50.658Z,6.92
2019-01-08T19:24:16.606Z,5.28
2019-01-08T19:26:42.696Z,6.00
2019-01-08T19:29:08.720Z,4.83
2019-01-08T19:31:34.803Z,3.72
2019-01-08T19:34:09.004Z,3.55
2019-01-08T19:36:29.769Z,3.50
2019-01-08T19:38:55.820Z,5.25
2019-01-08T19:41:21.892Z,4.05
2019-01-08T19:43:47.923Z,3.65
2019-01-08T19:46:13.973Z,5.67
2019-01-08T19:48:40.048Z,3.95
2019-01-08T19:51:06.138Z,6.37
2019-01-08T19:53:32.200Z,3.98
2019-01-08T19:55:58.304Z,4.65
2019-01-08T19:58:24.324Z,4.20
2019-01-08T20:00:50.354Z,9.18
2019-01-08T20:03:34.977Z,4.78
2019-01-08T20:06:04.665Z,4.75
2019-01-08T20:08:48.467Z,5.50
2019-01-08T20:11:06.716Z,2.87
2019-01-08T20:13:32.783Z,3.47
2019-01-08T20:15:58.880Z,6.10
2019-01-08T20:18:25.089Z,5.30
2019-01-08T20:20:51.199Z,8.48
2019-01-08T20:23:18.647Z,2.95
2019-01-08T20:25:44.739Z,4.08
2019-01-08T20:28:14.835Z,5.65
2019-01-08T20:30:40.949Z,5.22
2019-01-08T20:35:46.179Z,3.65
2019-01-08T20:38:19.943Z,8.38
2019-01-08T20:40:52.400Z,2.20
2019-01-08T20:43:18.523Z,4.20
2019-01-08T20:45:44.653Z,6.87
2019-01-08T20:48:10.958Z,7.10
2019-01-08T20:50:37.116Z,14.10
2019-01-08T20:53:10.531Z,4.85
2019-01-08T20:55:36.745Z,8.05
2019-01-08T20:58:02.853Z,8.48
2019-01-08T21:00:29.012Z,5.25
2019-01-08T21:02:55.052Z,6.23
2019-01-08T21:05:21.525Z,7.15
2019-01-08T21:07:51.628Z,7.08
2019-01-08T21:10:17.719Z,5.62
2019-01-08T21:12:46.731Z,6.20
2019-01-08T21:15:12.920Z,4.50
2019-01-08T21:17:41.703Z,6.53
2019-01-08T21:20:07.848Z,5.65
2019-01-08T21:22:35.941Z,6.50
2019-01-08T21:25:02.323Z,7.05
2019-01-08T21:27:28.357Z,6.60
2019-01-08T21:29:54.757Z,7.87
2019-01-08T21:32:23.236Z,9.08
2019-01-08T21:34:49.469Z,10.00
2019-01-08T21:37:15.651Z,10.28
2019-01-08T21:39:41.804Z,6.40
2019-01-08T21:42:08.110Z,7.00
2019-01-08T21:44:34.599Z,8.58
2019-01-08T21:47:00.733Z,9.05
2019-01-08T21:49:26.818Z,6.28
2019-01-08T21:51:52.985Z,8.18
2019-01-08T21:54:20.301Z,8.80
2019-01-08T21:56:46.486Z,6.25
2019-01-08T21:59:12.621Z,6.05
2019-01-08T22:01:38.719Z,5.83
2019-01-08T22:04:04.901Z,7.28
2019-01-08T22:06:31.092Z,11.08
2019-01-08T22:08:57.249Z,6.22
2019-01-08T22:11:23.291Z,5.83
2019-01-08T22:13:49.392Z,8.43
2019-01-08T22:16:17.374Z,7.65
2019-01-08T22:18:43.583Z,6.35
2019-01-08T22:21:09.690Z,8.23
2019-01-08T22:23:35.735Z,6.70
2019-01-08T22:26:01.755Z,11.57
2019-01-08T22:28:27.821Z,9.28
2019-01-08T22:30:53.897Z,4.73
2019-01-08T22:33:19.932Z,8.80
2019-01-08T22:35:45.976Z,8.73
2019-01-08T22:38:12.020Z,7.63
2019-01-08T22:40:38.064Z,10.20
2019-01-08T22:43:04.207Z,9.28
2019-01-08T22:45:30.264Z,8.50
2019-01-08T22:47:56.314Z,11.10
2019-01-08T22:50:22.390Z,4.95
2019-01-08T22:52:48.424Z,10.60
2019-01-08T22:55:14.600Z,9.50
2019-01-08T22:57:40.821Z,9.27
2019-01-08T23:00:12.668Z,9.88
2019-01-08T23:02:38.818Z,10.05
2019-01-08T23:05:10.821Z,9.90
2019-01-08T23:07:33.075Z,16.97
2019-01-08T23:09:59.134Z,8.05
2019-01-08T23:12:25.296Z,6.72
2019-01-08T23:14:51.361Z,10.95
2019-01-08T23:17:17.531Z,10.65
2019-01-08T23:19:43.743Z,7.85
2019-01-08T23:22:13.286Z,10.40
2019-01-08T23:24:39.340Z,9.58
2019-01-08T23:27:05.499Z,11.85
2019-01-08T23:29:31.572Z,8.85
2019-01-08T23:31:57.608Z,8.13
2019-01-08T23:34:23.679Z,10.80
2019-01-08T23:36:49.728Z,8.15
2019-01-08T23:39:15.771Z,8.57
2019-01-08T23:41:41.999Z,7.60
2019-01-08T23:44:08.121Z,9.75
2019-01-08T23:46:34.212Z,11.90
2019-01-08T23:49:00.261Z,7.97
2019-01-08T23:51:26.321Z,11.60
2019-01-08T23:53:53.992Z,10.08
2019-01-08T23:56:20.490Z,7.53
2019-01-08T23:58:46.540Z,8.10
